Myerstown, Pennsylvania
Current Conditions -  °F | °C
As of 6:02 AM on Thursday 23 Oct 2014 (Local Time) from KMUI Reporting Station
Overcast Overcast  
Wind Chill: 52°   Ceiling: 11000
Heat Index: 52°   Visibility: 10mi
Dew Point: 46°   Wind: 12mph
Humidity: 82%   Direction: 350°N
Pressure: 29.85"   Gusts: 25mph
Location:  40.37°N, 76.3°W
Report Text: KMUI 231002Z AUTO 35010G22KT 10SM SCT026 OVC110 11/08 A2985 RMK AO2 $
Loading
Personal Weather Stations






























Interactive Weather Map
Tropical Storm Tracking
New forecast layout! Learn more

10-Day Weather Forecast

Advertisements
Track Severe Weather on mobile